sensor_id;sensor_type;location;lat;lon;timestamp;temperature;humidity
7002;DHT22;3541;53.230;10.518;2023-09-18T00:00:07;21.70;99.90
7002;DHT22;3541;53.230;10.518;2023-09-18T00:02:37;21.60;99.90
7002;DHT22;3541;53.230;10.518;2023-09-18T00:05:04;21.50;99.90
7002;DHT22;3541;53.230;10.518;2023-09-18T00:07:31;21.50;99.90
7002;DHT22;3541;53.230;10.518;2023-09-18T00:09:57;21.50;99.90
7002;DHT22;3541;53.230;10.518;2023-09-18T00:12:24;21.50;99.90
7002;DHT22;3541;53.230;10.518;2023-09-18T00:14:52;21.40;99.90
7002;DHT22;3541;53.230;10.518;2023-09-18T00:17:18;21.40;99.90
7002;DHT22;3541;53.230;10.518;2023-09-18T00:19:46;21.40;99.90
7002;DHT22;3541;53.230;10.518;2023-09-18T00:22:13;21.40;99.90
7002;DHT22;3541;53.230;10.518;2023-09-18T00:24:39;21.40;99.90
7002;DHT22;3541;53.230;10.518;2023-09-18T00:27:06;21.40;99.90
7002;DHT22;3541;53.230;10.518;2023-09-18T00:29:32;21.40;99.90
7002;DHT22;3541;53.230;10.518;2023-09-18T00:32:00;21.40;99.90
7002;DHT22;3541;53.230;10.518;2023-09-18T00:34:28;21.40;99.90
7002;DHT22;3541;53.230;10.518;2023-09-18T00:36:57;21.40;99.90
7002;DHT22;3541;53.230;10.518;2023-09-18T00:39:24;21.30;99.90
7002;DHT22;3541;53.230;10.518;2023-09-18T00:41:50;21.30;99.90
7002;DHT22;3541;53.230;10.518;2023-09-18T00:44:19;21.30;99.90
7002;DHT22;3541;53.230;10.518;2023-09-18T00:46:46;21.30;99.90
7002;DHT22;3541;53.230;10.518;2023-09-18T00:49:14;21.20;99.90
7002;DHT22;3541;53.230;10.518;2023-09-18T00:51:41;21.20;99.90
7002;DHT22;3541;53.230;10.518;2023-09-18T00:54:08;21.20;99.90
7002;DHT22;3541;53.230;10.518;2023-09-18T00:56:35;21.20;99.90
7002;DHT22;3541;53.230;10.518;2023-09-18T00:59:02;21.10;99.90
7002;DHT22;3541;53.230;10.518;2023-09-18T01:01:29;21.10;99.90
7002;DHT22;3541;53.230;10.518;2023-09-18T01:03:56;21.10;99.90
7002;DHT22;3541;53.230;10.518;2023-09-18T01:06:26;21.10;99.90
7002;DHT22;3541;53.230;10.518;2023-09-18T01:08:55;21.10;99.90
7002;DHT22;3541;53.230;10.518;2023-09-18T01:11:29;21.10;99.90
7002;DHT22;3541;53.230;10.518;2023-09-18T01:14:06;21.10;99.90
7002;DHT22;3541;53.230;10.518;2023-09-18T01:16:41;21.10;99.90
7002;DHT22;3541;53.230;10.518;2023-09-18T01:19:11;21.10;99.90
7002;DHT22;3541;53.230;10.518;2023-09-18T01:21:39;21.10;99.90
7002;DHT22;3541;53.230;10.518;2023-09-18T01:24:07;21.10;99.90
7002;DHT22;3541;53.230;10.518;2023-09-18T01:26:33;21.10;99.90
7002;DHT22;3541;53.230;10.518;2023-09-18T01:29:00;21.10;99.90
7002;DHT22;3541;53.230;10.518;2023-09-18T01:31:27;21.00;99.90
7002;DHT22;3541;53.230;10.518;2023-09-18T01:33:54;21.00;99.90
7002;DHT22;3541;53.230;10.518;2023-09-18T01:36:22;21.00;99.90
7002;DHT22;3541;53.230;10.518;2023-09-18T01:38:50;21.00;99.90
7002;DHT22;3541;53.230;10.518;2023-09-18T01:41:18;20.90;99.90
7002;DHT22;3541;53.230;10.518;2023-09-18T01:43:45;20.90;99.90
7002;DHT22;3541;53.230;10.518;2023-09-18T01:46:12;20.80;99.90
7002;DHT22;3541;53.230;10.518;2023-09-18T01:48:45;20.80;99.90
7002;DHT22;3541;53.230;10.518;2023-09-18T01:51:13;20.70;99.90
7002;DHT22;3541;53.230;10.518;2023-09-18T01:53:40;20.70;99.90
7002;DHT22;3541;53.230;10.518;2023-09-18T01:56:06;20.60;99.90
7002;DHT22;3541;53.230;10.518;2023-09-18T01:58:35;20.60;99.90
7002;DHT22;3541;53.230;10.518;2023-09-18T02:01:01;20.60;99.90
7002;DHT22;3541;53.230;10.518;2023-09-18T02:03:28;20.60;99.90
7002;DHT22;3541;53.230;10.518;2023-09-18T02:05:54;20.70;99.90
7002;DHT22;3541;53.230;10.518;2023-09-18T02:08:21;20.60;99.90
7002;DHT22;3541;53.230;10.518;2023-09-18T02:10:47;20.60;99.90
7002;DHT22;3541;53.230;10.518;2023-09-18T02:13:14;20.60;99.90
7002;DHT22;3541;53.230;10.518;2023-09-18T02:15:43;20.50;99.90
7002;DHT22;3541;53.230;10.518;2023-09-18T02:18:10;20.60;99.90
7002;DHT22;3541;53.230;10.518;2023-09-18T02:20:40;20.50;99.90
7002;DHT22;3541;53.230;10.518;2023-09-18T02:23:06;20.60;99.90
7002;DHT22;3541;53.230;10.518;2023-09-18T02:25:33;20.60;99.90
7002;DHT22;3541;53.230;10.518;2023-09-18T02:27:59;20.60;99.90
7002;DHT22;3541;53.230;10.518;2023-09-18T02:30:26;20.60;99.90
7002;DHT22;3541;53.230;10.518;2023-09-18T02:32:55;20.60;99.90
7002;DHT22;3541;53.230;10.518;2023-09-18T02:35:21;20.60;99.90
7002;DHT22;3541;53.230;10.518;2023-09-18T02:37:48;20.60;99.90
7002;DHT22;3541;53.230;10.518;2023-09-18T02:40:15;20.40;99.90
7002;DHT22;3541;53.230;10.518;2023-09-18T02:42:41;20.40;99.90
7002;DHT22;3541;53.230;10.518;2023-09-18T02:45:08;20.30;99.90
7002;DHT22;3541;53.230;10.518;2023-09-18T02:47:35;20.30;99.90
7002;DHT22;3541;53.230;10.518;2023-09-18T02:50:05;20.30;99.90
7002;DHT22;3541;53.230;10.518;2023-09-18T02:52:31;20.30;99.90
7002;DHT22;3541;53.230;10.518;2023-09-18T02:54:58;20.30;99.90
7002;DHT22;3541;53.230;10.518;2023-09-18T02:57:25;20.30;99.90
7002;DHT22;3541;53.230;10.518;2023-09-18T02:59:51;20.40;99.90
7002;DHT22;3541;53.230;10.518;2023-09-18T03:02:18;20.40;99.90
7002;DHT22;3541;53.230;10.518;2023-09-18T03:04:44;20.40;99.90
7002;DHT22;3541;53.230;10.518;2023-09-18T03:07:13;20.40;99.90
7002;DHT22;3541;53.230;10.518;2023-09-18T03:09:41;20.40;99.90
7002;DHT22;3541;53.230;10.518;2023-09-18T03:12:08;20.40;99.90
7002;DHT22;3541;53.230;10.518;2023-09-18T03:14:35;20.30;99.90
7002;DHT22;3541;53.230;10.518;2023-09-18T03:17:01;20.30;99.90
7002;DHT22;3541;53.230;10.518;2023-09-18T03:19:28;20.30;99.90
7002;DHT22;3541;53.230;10.518;2023-09-18T03:21:54;20.30;99.90
7002;DHT22;3541;53.230;10.518;2023-09-18T03:24:22;20.20;99.90
7002;DHT22;3541;53.230;10.518;2023-09-18T03:26:49;20.20;99.90
7002;DHT22;3541;53.230;10.518;2023-09-18T03:29:15;20.10;99.90
7002;DHT22;3541;53.230;10.518;2023-09-18T03:31:42;20.10;99.90
7002;DHT22;3541;53.230;10.518;2023-09-18T03:34:08;20.10;99.90
7002;DHT22;3541;53.230;10.518;2023-09-18T03:36:35;20.10;99.90
7002;DHT22;3541;53.230;10.518;2023-09-18T03:39:02;20.00;99.90
7002;DHT22;3541;53.230;10.518;2023-09-18T03:41:31;20.00;99.90
7002;DHT22;3541;53.230;10.518;2023-09-18T03:43:59;20.10;99.90
7002;DHT22;3541;53.230;10.518;2023-09-18T03:46:26;20.10;99.90
7002;DHT22;3541;53.230;10.518;2023-09-18T03:48:52;20.20;99.90
7002;DHT22;3541;53.230;10.518;2023-09-18T03:51:20;20.10;99.90
7002;DHT22;3541;53.230;10.518;2023-09-18T03:53:46;20.10;99.90
7002;DHT22;3541;53.230;10.518;2023-09-18T03:56:13;20.00;99.90
7002;DHT22;3541;53.230;10.518;2023-09-18T03:58:42;20.10;99.90
7002;DHT22;3541;53.230;10.518;2023-09-18T04:01:10;20.10;99.90
7002;DHT22;3541;53.230;10.518;2023-09-18T04:03:36;20.10;99.90
7002;DHT22;3541;53.230;10.518;2023-09-18T04:06:03;20.10;99.90
7002;DHT22;3541;53.230;10.518;2023-09-18T04:08:30;20.10;99.90
7002;DHT22;3541;53.230;10.518;2023-09-18T04:10:56;20.10;99.90
7002;DHT22;3541;53.230;10.518;2023-09-18T04:13:23;20.10;99.90
7002;DHT22;3541;53.230;10.518;2023-09-18T04:15:51;20.00;99.90
7002;DHT22;3541;53.230;10.518;2023-09-18T04:18:22;20.00;99.90
7002;DHT22;3541;53.230;10.518;2023-09-18T04:20:48;19.90;99.90
7002;DHT22;3541;53.230;10.518;2023-09-18T04:23:18;19.90;99.90
7002;DHT22;3541;53.230;10.518;2023-09-18T04:25:45;19.90;99.90
7002;DHT22;3541;53.230;10.518;2023-09-18T04:28:12;19.90;99.90
7002;DHT22;3541;53.230;10.518;2023-09-18T04:30:39;19.90;99.90
7002;DHT22;3541;53.230;10.518;2023-09-18T04:33:07;19.80;99.90
7002;DHT22;3541;53.230;10.518;2023-09-18T04:35:33;19.70;99.90
7002;DHT22;3541;53.230;10.518;2023-09-18T04:38:00;19.70;99.90
7002;DHT22;3541;53.230;10.518;2023-09-18T04:40:27;19.70;99.90
7002;DHT22;3541;53.230;10.518;2023-09-18T04:42:57;19.60;99.90
7002;DHT22;3541;53.230;10.518;2023-09-18T04:45:24;19.60;99.90
7002;DHT22;3541;53.230;10.518;2023-09-18T04:47:50;19.70;99.90
7002;DHT22;3541;53.230;10.518;2023-09-18T04:50:18;19.60;99.90
7002;DHT22;3541;53.230;10.518;2023-09-18T04:52:45;19.70;99.90
7002;DHT22;3541;53.230;10.518;2023-09-18T04:55:13;19.60;99.90
7002;DHT22;3541;53.230;10.518;2023-09-18T04:57:40;19.70;99.90
7002;DHT22;3541;53.230;10.518;2023-09-18T05:00:08;19.60;99.90
7002;DHT22;3541;53.230;10.518;2023-09-18T05:02:38;19.60;99.90
7002;DHT22;3541;53.230;10.518;2023-09-18T05:05:05;19.60;99.90
7002;DHT22;3541;53.230;10.518;2023-09-18T05:07:35;19.60;99.90
7002;DHT22;3541;53.230;10.518;2023-09-18T05:10:02;19.70;99.90
7002;DHT22;3541;53.230;10.518;2023-09-18T05:12:29;19.70;99.90
7002;DHT22;3541;53.230;10.518;2023-09-18T05:14:56;19.70;99.90
7002;DHT22;3541;53.230;10.518;2023-09-18T05:17:39;19.70;99.90
7002;DHT22;3541;53.230;10.518;2023-09-18T05:20:08;19.70;99.90
7002;DHT22;3541;53.230;10.518;2023-09-18T05:22:38;19.80;99.90
7002;DHT22;3541;53.230;10.518;2023-09-18T05:25:05;19.70;99.90
7002;DHT22;3541;53.230;10.518;2023-09-18T05:27:32;19.70;99.90
7002;DHT22;3541;53.230;10.518;2023-09-18T05:29:58;19.60;99.90
7002;DHT22;3541;53.230;10.518;2023-09-18T05:32:25;19.60;99.90
7002;DHT22;3541;53.230;10.518;2023-09-18T05:34:52;19.70;99.90
7002;DHT22;3541;53.230;10.518;2023-09-18T05:37:18;19.80;99.90
7002;DHT22;3541;53.230;10.518;2023-09-18T05:39:46;19.80;99.90
7002;DHT22;3541;53.230;10.518;2023-09-18T05:42:14;19.80;99.90
7002;DHT22;3541;53.230;10.518;2023-09-18T05:44:40;19.80;99.90
7002;DHT22;3541;53.230;10.518;2023-09-18T05:47:07;19.80;99.90
7002;DHT22;3541;53.230;10.518;2023-09-18T05:49:33;19.70;99.90
7002;DHT22;3541;53.230;10.518;2023-09-18T05:52:01;19.80;99.90
7002;DHT22;3541;53.230;10.518;2023-09-18T05:54:27;19.80;99.90
7002;DHT22;3541;53.230;10.518;2023-09-18T05:56:55;19.90;99.90
7002;DHT22;3541;53.230;10.518;2023-09-18T05:59:22;19.90;99.90
7002;DHT22;3541;53.230;10.518;2023-09-18T06:01:48;20.00;99.90
7002;DHT22;3541;53.230;10.518;2023-09-18T06:04:15;20.00;99.90
7002;DHT22;3541;53.230;10.518;2023-09-18T06:06:42;20.10;99.90
7002;DHT22;3541;53.230;10.518;2023-09-18T06:09:09;20.10;99.90
7002;DHT22;3541;53.230;10.518;2023-09-18T06:11:35;20.20;99.90
7002;DHT22;3541;53.230;10.518;2023-09-18T06:14:03;20.20;99.90
7002;DHT22;3541;53.230;10.518;2023-09-18T06:16:30;20.20;99.90
7002;DHT22;3541;53.230;10.518;2023-09-18T06:18:57;20.30;99.90
7002;DHT22;3541;53.230;10.518;2023-09-18T06:21:25;20.20;99.90
7002;DHT22;3541;53.230;10.518;2023-09-18T06:23:52;20.30;99.90
7002;DHT22;3541;53.230;10.518;2023-09-18T06:26:18;20.30;99.90
7002;DHT22;3541;53.230;10.518;2023-09-18T06:28:44;20.30;99.90
7002;DHT22;3541;53.230;10.518;2023-09-18T06:31:12;20.30;99.90
7002;DHT22;3541;53.230;10.518;2023-09-18T06:33:38;20.40;99.90
7002;DHT22;3541;53.230;10.518;2023-09-18T06:36:05;20.40;99.90
7002;DHT22;3541;53.230;10.518;2023-09-18T06:38:32;20.50;99.90
7002;DHT22;3541;53.230;10.518;2023-09-18T06:40:58;20.50;99.90
7002;DHT22;3541;53.230;10.518;2023-09-18T06:43:25;20.50;99.90
7002;DHT22;3541;53.230;10.518;2023-09-18T06:45:51;20.60;99.90
7002;DHT22;3541;53.230;10.518;2023-09-18T06:48:19;20.60;99.90
7002;DHT22;3541;53.230;10.518;2023-09-18T06:50:47;20.60;99.90
7002;DHT22;3541;53.230;10.518;2023-09-18T06:53:13;20.60;99.90
7002;DHT22;3541;53.230;10.518;2023-09-18T06:55:40;20.60;99.90
7002;DHT22;3541;53.230;10.518;2023-09-18T06:58:06;20.60;99.90
7002;DHT22;3541;53.230;10.518;2023-09-18T07:00:33;20.60;99.90
7002;DHT22;3541;53.230;10.518;2023-09-18T07:02:59;20.60;99.90
7002;DHT22;3541;53.230;10.518;2023-09-18T07:05:27;20.60;99.90
7002;DHT22;3541;53.230;10.518;2023-09-18T07:07:54;20.70;99.90
7002;DHT22;3541;53.230;10.518;2023-09-18T07:10:22;20.70;99.90
7002;DHT22;3541;53.230;10.518;2023-09-18T07:12:49;20.80;99.90
7002;DHT22;3541;53.230;10.518;2023-09-18T07:15:15;20.80;99.90
7002;DHT22;3541;53.230;10.518;2023-09-18T07:17:43;20.80;99.90
7002;DHT22;3541;53.230;10.518;2023-09-18T07:20:10;20.90;99.90
7002;DHT22;3541;53.230;10.518;2023-09-18T07:22:40;20.90;99.90
7002;DHT22;3541;53.230;10.518;2023-09-18T07:25:07;20.90;99.90
7002;DHT22;3541;53.230;10.518;2023-09-18T07:27:34;20.90;99.90
7002;DHT22;3541;53.230;10.518;2023-09-18T07:30:02;21.00;99.90
7002;DHT22;3541;53.230;10.518;2023-09-18T07:32:29;21.10;99.90
7002;DHT22;3541;53.230;10.518;2023-09-18T07:34:56;21.10;99.90
7002;DHT22;3541;53.230;10.518;2023-09-18T07:37:23;21.10;99.90
7002;DHT22;3541;53.230;10.518;2023-09-18T07:39:51;21.20;99.90
7002;DHT22;3541;53.230;10.518;2023-09-18T07:42:17;21.20;99.90
7002;DHT22;3541;53.230;10.518;2023-09-18T07:44:44;21.10;99.90
7002;DHT22;3541;53.230;10.518;2023-09-18T07:47:10;21.20;99.90
7002;DHT22;3541;53.230;10.518;2023-09-18T07:49:37;21.10;99.90
7002;DHT22;3541;53.230;10.518;2023-09-18T07:52:04;21.10;99.90
7002;DHT22;3541;53.230;10.518;2023-09-18T07:54:30;21.20;99.90
7002;DHT22;3541;53.230;10.518;2023-09-18T07:56:58;21.20;99.90
7002;DHT22;3541;53.230;10.518;2023-09-18T07:59:26;21.30;99.90
7002;DHT22;3541;53.230;10.518;2023-09-18T08:01:53;21.30;99.90
7002;DHT22;3541;53.230;10.518;2023-09-18T08:04:20;21.40;99.90
7002;DHT22;3541;53.230;10.518;2023-09-18T08:06:47;21.30;99.90
7002;DHT22;3541;53.230;10.518;2023-09-18T08:09:13;21.30;99.90
7002;DHT22;3541;53.230;10.518;2023-09-18T08:11:41;21.30;99.90
7002;DHT22;3541;53.230;10.518;2023-09-18T08:14:09;21.20;99.90
7002;DHT22;3541;53.230;10.518;2023-09-18T08:16:38;21.30;99.90
7002;DHT22;3541;53.230;10.518;2023-09-18T08:19:04;21.20;99.90
7002;DHT22;3541;53.230;10.518;2023-09-18T08:21:32;21.10;99.90
7002;DHT22;3541;53.230;10.518;2023-09-18T08:23:58;21.20;99.90
7002;DHT22;3541;53.230;10.518;2023-09-18T08:26:25;21.10;99.90
7002;DHT22;3541;53.230;10.518;2023-09-18T08:28:53;21.10;99.90
7002;DHT22;3541;53.230;10.518;2023-09-18T08:31:20;21.10;99.90
7002;DHT22;3541;53.230;10.518;2023-09-18T08:33:48;21.20;99.90
7002;DHT22;3541;53.230;10.518;2023-09-18T08:36:15;21.20;99.90
7002;DHT22;3541;53.230;10.518;2023-09-18T08:38:41;21.20;99.90
7002;DHT22;3541;53.230;10.518;2023-09-18T08:41:09;21.20;99.90
7002;DHT22;3541;53.230;10.518;2023-09-18T08:43:37;21.20;99.90
7002;DHT22;3541;53.230;10.518;2023-09-18T08:46:07;21.30;99.90
7002;DHT22;3541;53.230;10.518;2023-09-18T08:48:35;21.30;99.90
7002;DHT22;3541;53.230;10.518;2023-09-18T08:51:03;21.40;99.90
7002;DHT22;3541;53.230;10.518;2023-09-18T08:53:31;21.40;99.90
7002;DHT22;3541;53.230;10.518;2023-09-18T08:55:59;21.40;99.90
7002;DHT22;3541;53.230;10.518;2023-09-18T08:58:27;21.30;99.90
7002;DHT22;3541;53.230;10.518;2023-09-18T09:00:54;21.30;99.90
7002;DHT22;3541;53.230;10.518;2023-09-18T09:03:21;21.30;99.90
7002;DHT22;3541;53.230;10.518;2023-09-18T09:05:49;21.20;99.90
7002;DHT22;3541;53.230;10.518;2023-09-18T09:08:15;21.30;99.90
7002;DHT22;3541;53.230;10.518;2023-09-18T09:10:42;21.30;99.90
7002;DHT22;3541;53.230;10.518;2023-09-18T09:13:09;21.30;99.90
7002;DHT22;3541;53.230;10.518;2023-09-18T09:15:44;21.30;99.90
7002;DHT22;3541;53.230;10.518;2023-09-18T09:18:12;21.30;99.90
7002;DHT22;3541;53.230;10.518;2023-09-18T09:20:39;21.40;99.90
7002;DHT22;3541;53.230;10.518;2023-09-18T09:23:08;21.40;99.90
7002;DHT22;3541;53.230;10.518;2023-09-18T09:25:36;21.50;99.90
7002;DHT22;3541;53.230;10.518;2023-09-18T09:28:04;21.50;99.90
7002;DHT22;3541;53.230;10.518;2023-09-18T09:30:32;21.60;99.90
7002;DHT22;3541;53.230;10.518;2023-09-18T09:32:59;21.80;99.90
7002;DHT22;3541;53.230;10.518;2023-09-18T09:35:29;21.90;99.90
7002;DHT22;3541;53.230;10.518;2023-09-18T09:38:00;21.90;99.90
7002;DHT22;3541;53.230;10.518;2023-09-18T09:40:29;21.90;99.90
7002;DHT22;3541;53.230;10.518;2023-09-18T09:42:57;22.00;99.90
7002;DHT22;3541;53.230;10.518;2023-09-18T09:45:28;22.00;99.90
7002;DHT22;3541;53.230;10.518;2023-09-18T09:47:57;22.20;99.90
7002;DHT22;3541;53.230;10.518;2023-09-18T09:50:24;22.30;99.90
7002;DHT22;3541;53.230;10.518;2023-09-18T09:52:53;22.40;99.90
7002;DHT22;3541;53.230;10.518;2023-09-18T09:55:25;22.50;99.90
7002;DHT22;3541;53.230;10.518;2023-09-18T09:57:56;22.50;99.90
7002;DHT22;3541;53.230;10.518;2023-09-18T10:00:26;22.60;99.90
7002;DHT22;3541;53.230;10.518;2023-09-18T10:03:01;22.60;99.90
7002;DHT22;3541;53.230;10.518;2023-09-18T10:05:32;22.60;99.90
7002;DHT22;3541;53.230;10.518;2023-09-18T10:08:03;22.50;99.90
7002;DHT22;3541;53.230;10.518;2023-09-18T10:10:33;22.50;99.90
7002;DHT22;3541;53.230;10.518;2023-09-18T10:13:07;22.50;99.90
7002;DHT22;3541;53.230;10.518;2023-09-18T10:15:35;22.50;99.90
7002;DHT22;3541;53.230;10.518;2023-09-18T10:18:10;22.50;99.90
7002;DHT22;3541;53.230;10.518;2023-09-18T10:20:42;22.50;99.90
7002;DHT22;3541;53.230;10.518;2023-09-18T10:23:21;22.40;99.90
7002;DHT22;3541;53.230;10.518;2023-09-18T10:25:55;22.40;99.90
7002;DHT22;3541;53.230;10.518;2023-09-18T10:28:26;22.40;99.90
7002;DHT22;3541;53.230;10.518;2023-09-18T10:30:57;22.40;99.90
7002;DHT22;3541;53.230;10.518;2023-09-18T10:33:25;22.40;99.90
7002;DHT22;3541;53.230;10.518;2023-09-18T10:35:53;22.40;99.90
7002;DHT22;3541;53.230;10.518;2023-09-18T10:38:20;22.30;99.90
7002;DHT22;3541;53.230;10.518;2023-09-18T10:40:47;22.30;99.90
7002;DHT22;3541;53.230;10.518;2023-09-18T10:43:16;22.30;99.90
7002;DHT22;3541;53.230;10.518;2023-09-18T10:45:45;22.20;99.90
7002;DHT22;3541;53.230;10.518;2023-09-18T10:48:13;22.30;99.90
7002;DHT22;3541;53.230;10.518;2023-09-18T10:50:42;22.30;99.90
7002;DHT22;3541;53.230;10.518;2023-09-18T10:53:11;22.30;99.90
7002;DHT22;3541;53.230;10.518;2023-09-18T10:55:37;22.40;99.90
7002;DHT22;3541;53.230;10.518;2023-09-18T10:58:04;22.40;99.90
7002;DHT22;3541;53.230;10.518;2023-09-18T11:00:32;22.40;99.90
7002;DHT22;3541;53.230;10.518;2023-09-18T11:03:13;22.40;99.90
7002;DHT22;3541;53.230;10.518;2023-09-18T11:05:44;22.40;99.90
7002;DHT22;3541;53.230;10.518;2023-09-18T11:08:24;22.40;99.90
7002;DHT22;3541;53.230;10.518;2023-09-18T11:11:06;22.40;99.90
7002;DHT22;3541;53.230;10.518;2023-09-18T11:13:36;22.50;99.90
7002;DHT22;3541;53.230;10.518;2023-09-18T11:16:17;22.60;99.90
7002;DHT22;3541;53.230;10.518;2023-09-18T11:18:48;22.70;99.90
7002;DHT22;3541;53.230;10.518;2023-09-18T11:21:16;22.80;99.90
7002;DHT22;3541;53.230;10.518;2023-09-18T11:23:44;22.90;99.90
7002;DHT22;3541;53.230;10.518;2023-09-18T11:26:11;22.90;99.90
7002;DHT22;3541;53.230;10.518;2023-09-18T11:28:38;22.80;99.90
7002;DHT22;3541;53.230;10.518;2023-09-18T11:31:05;22.80;99.90
7002;DHT22;3541;53.230;10.518;2023-09-18T11:33:35;22.80;99.90
7002;DHT22;3541;53.230;10.518;2023-09-18T11:36:07;22.80;99.90
7002;DHT22;3541;53.230;10.518;2023-09-18T11:38:51;22.80;99.90
7002;DHT22;3541;53.230;10.518;2023-09-18T11:41:23;23.00;99.90
7002;DHT22;3541;53.230;10.518;2023-09-18T11:43:51;23.10;99.90
7002;DHT22;3541;53.230;10.518;2023-09-18T11:46:19;23.20;99.90
7002;DHT22;3541;53.230;10.518;2023-09-18T11:48:48;23.30;99.90
7002;DHT22;3541;53.230;10.518;2023-09-18T11:51:22;23.30;99.90
7002;DHT22;3541;53.230;10.518;2023-09-18T11:53:53;23.30;99.90
7002;DHT22;3541;53.230;10.518;2023-09-18T11:56:20;23.20;99.90
7002;DHT22;3541;53.230;10.518;2023-09-18T11:58:47;23.10;99.90
7002;DHT22;3541;53.230;10.518;2023-09-18T12:01:14;23.00;99.90
7002;DHT22;3541;53.230;10.518;2023-09-18T12:03:41;23.00;99.90
7002;DHT22;3541;53.230;10.518;2023-09-18T12:06:08;23.00;99.90
7002;DHT22;3541;53.230;10.518;2023-09-18T12:08:39;23.00;99.90
7002;DHT22;3541;53.230;10.518;2023-09-18T12:11:07;23.00;99.90
7002;DHT22;3541;53.230;10.518;2023-09-18T12:13:34;23.00;99.90
7002;DHT22;3541;53.230;10.518;2023-09-18T12:16:02;23.00;99.90
7002;DHT22;3541;53.230;10.518;2023-09-18T12:18:31;23.00;99.90
7002;DHT22;3541;53.230;10.518;2023-09-18T12:21:00;23.00;99.90
7002;DHT22;3541;53.230;10.518;2023-09-18T12:23:30;23.00;99.90
7002;DHT22;3541;53.230;10.518;2023-09-18T12:26:04;23.10;99.90
7002;DHT22;3541;53.230;10.518;2023-09-18T12:28:33;23.20;99.90
7002;DHT22;3541;53.230;10.518;2023-09-18T12:30:59;23.20;99.90
7002;DHT22;3541;53.230;10.518;2023-09-18T12:33:30;23.30;99.90
7002;DHT22;3541;53.230;10.518;2023-09-18T12:36:00;23.50;99.90
7002;DHT22;3541;53.230;10.518;2023-09-18T12:38:26;23.70;99.90
7002;DHT22;3541;53.230;10.518;2023-09-18T12:40:53;23.60;99.90
7002;DHT22;3541;53.230;10.518;2023-09-18T12:43:22;23.60;99.90
7002;DHT22;3541;53.230;10.518;2023-09-18T12:45:50;23.60;99.90
7002;DHT22;3541;53.230;10.518;2023-09-18T12:48:17;23.50;99.90
7002;DHT22;3541;53.230;10.518;2023-09-18T12:50:44;23.50;99.90
7002;DHT22;3541;53.230;10.518;2023-09-18T12:53:11;23.50;99.90
7002;DHT22;3541;53.230;10.518;2023-09-18T12:55:39;23.40;99.90
7002;DHT22;3541;53.230;10.518;2023-09-18T12:58:08;23.40;99.90
7002;DHT22;3541;53.230;10.518;2023-09-18T13:00:44;23.40;99.90
7002;DHT22;3541;53.230;10.518;2023-09-18T13:03:13;23.40;99.90
7002;DHT22;3541;53.230;10.518;2023-09-18T13:05:39;23.40;99.90
7002;DHT22;3541;53.230;10.518;2023-09-18T13:08:06;23.40;99.90
7002;DHT22;3541;53.230;10.518;2023-09-18T13:10:44;23.50;99.90
7002;DHT22;3541;53.230;10.518;2023-09-18T13:13:16;23.60;99.90
7002;DHT22;3541;53.230;10.518;2023-09-18T13:15:45;23.70;99.90
7002;DHT22;3541;53.230;10.518;2023-09-18T13:18:14;23.80;99.90
7002;DHT22;3541;53.230;10.518;2023-09-18T13:20:41;23.90;99.90
7002;DHT22;3541;53.230;10.518;2023-09-18T13:23:08;24.00;99.90
7002;DHT22;3541;53.230;10.518;2023-09-18T13:25:36;24.10;99.90
7002;DHT22;3541;53.230;10.518;2023-09-18T13:28:04;24.30;99.90
7002;DHT22;3541;53.230;10.518;2023-09-18T13:30:32;24.40;99.90
7002;DHT22;3541;53.230;10.518;2023-09-18T13:33:05;24.40;99.90
7002;DHT22;3541;53.230;10.518;2023-09-18T13:35:32;24.20;99.90
7002;DHT22;3541;53.230;10.518;2023-09-18T13:37:59;24.00;99.90
7002;DHT22;3541;53.230;10.518;2023-09-18T13:40:25;23.80;99.90
7002;DHT22;3541;53.230;10.518;2023-09-18T13:42:53;23.80;99.90
7002;DHT22;3541;53.230;10.518;2023-09-18T13:45:20;23.70;99.90
7002;DHT22;3541;53.230;10.518;2023-09-18T13:47:46;23.60;99.90
7002;DHT22;3541;53.230;10.518;2023-09-18T13:50:16;23.60;99.90
7002;DHT22;3541;53.230;10.518;2023-09-18T13:52:42;23.50;99.90
7002;DHT22;3541;53.230;10.518;2023-09-18T13:55:09;23.40;99.90
7002;DHT22;3541;53.230;10.518;2023-09-18T13:57:35;23.30;99.90
7002;DHT22;3541;53.230;10.518;2023-09-18T14:00:04;23.30;99.90
7002;DHT22;3541;53.230;10.518;2023-09-18T14:02:32;23.30;99.90
7002;DHT22;3541;53.230;10.518;2023-09-18T14:04:59;23.20;99.90
7002;DHT22;3541;53.230;10.518;2023-09-18T14:07:27;23.20;99.90
7002;DHT22;3541;53.230;10.518;2023-09-18T14:09:53;23.10;99.90
7002;DHT22;3541;53.230;10.518;2023-09-18T14:12:20;23.00;99.90
7002;DHT22;3541;53.230;10.518;2023-09-18T14:14:47;23.00;99.90
7002;DHT22;3541;53.230;10.518;2023-09-18T14:17:14;23.00;99.90
7002;DHT22;3541;53.230;10.518;2023-09-18T14:19:43;22.90;99.90
7002;DHT22;3541;53.230;10.518;2023-09-18T14:22:10;22.90;99.90
7002;DHT22;3541;53.230;10.518;2023-09-18T14:24:38;22.90;99.90
7002;DHT22;3541;53.230;10.518;2023-09-18T14:27:05;22.90;99.90
7002;DHT22;3541;53.230;10.518;2023-09-18T14:29:32;22.90;99.90
7002;DHT22;3541;53.230;10.518;2023-09-18T14:31:59;22.90;99.90
7002;DHT22;3541;53.230;10.518;2023-09-18T14:34:25;22.90;99.90
7002;DHT22;3541;53.230;10.518;2023-09-18T14:36:52;22.90;99.90
7002;DHT22;3541;53.230;10.518;2023-09-18T14:39:18;22.90;99.90
7002;DHT22;3541;53.230;10.518;2023-09-18T14:41:46;22.90;99.90
7002;DHT22;3541;53.230;10.518;2023-09-18T14:44:13;22.90;99.90
7002;DHT22;3541;53.230;10.518;2023-09-18T14:46:40;22.90;99.90
7002;DHT22;3541;53.230;10.518;2023-09-18T14:49:08;22.90;99.90
7002;DHT22;3541;53.230;10.518;2023-09-18T14:51:35;22.90;99.90
7002;DHT22;3541;53.230;10.518;2023-09-18T14:54:02;22.90;99.90
7002;DHT22;3541;53.230;10.518;2023-09-18T14:56:30;22.90;99.90
7002;DHT22;3541;53.230;10.518;2023-09-18T14:58:58;22.90;99.90
7002;DHT22;3541;53.230;10.518;2023-09-18T15:01:24;22.80;99.90
7002;DHT22;3541;53.230;10.518;2023-09-18T15:03:51;22.80;99.90
7002;DHT22;3541;53.230;10.518;2023-09-18T15:06:17;22.90;99.90
7002;DHT22;3541;53.230;10.518;2023-09-18T15:08:44;22.80;99.90
7002;DHT22;3541;53.230;10.518;2023-09-18T15:11:10;22.80;99.90
7002;DHT22;3541;53.230;10.518;2023-09-18T15:13:38;22.80;99.90
7002;DHT22;3541;53.230;10.518;2023-09-18T15:16:06;22.70;99.90
7002;DHT22;3541;53.230;10.518;2023-09-18T15:18:33;22.80;99.90
7002;DHT22;3541;53.230;10.518;2023-09-18T15:20:59;22.80;99.90
7002;DHT22;3541;53.230;10.518;2023-09-18T15:23:26;22.80;99.90
7002;DHT22;3541;53.230;10.518;2023-09-18T15:25:53;22.70;99.90
7002;DHT22;3541;53.230;10.518;2023-09-18T15:28:21;22.70;99.90
7002;DHT22;3541;53.230;10.518;2023-09-18T15:30:49;22.70;99.90
7002;DHT22;3541;53.230;10.518;2023-09-18T15:33:18;22.70;99.90
7002;DHT22;3541;53.230;10.518;2023-09-18T15:35:47;22.70;99.90
7002;DHT22;3541;53.230;10.518;2023-09-18T15:38:14;22.60;99.90
7002;DHT22;3541;53.230;10.518;2023-09-18T15:40:41;22.60;99.90
7002;DHT22;3541;53.230;10.518;2023-09-18T15:43:07;22.60;99.90
7002;DHT22;3541;53.230;10.518;2023-09-18T15:45:34;22.60;99.90
7002;DHT22;3541;53.230;10.518;2023-09-18T15:48:02;22.60;99.90